Terminal Aerodrome Forecast
Issued by NWS

Home | Current Version | Previous Version | Text Only | Print | Product List | Glossary On
Versions: 1 2 3 4 5 6 7 8 9 10 11 12 13 14 15 16 17 18
000
FTUS43 KDMX 231126
TAFFOD
TAF
KFOD 231126Z 2312/2412 14012G18KT P6SM OVC035
     FM231400 15015G21KT P6SM OVC025
     FM231800 15015G23KT P6SM VCSH OVC012
     FM232300 15014G22KT P6SM VCSH OVC030
     FM240100 15013KT P6SM VCSH OVC030
     FM240600 18012KT P6SM BKN020=

USA.gov is the U.S. government's official web portal to all federal, state and local government web resources and services.